Historique des mesures à Cassis (13260), France
Quotidien Résumé Fevrier 28, 2018 Unités:  Métrique/US    US   Métrique
« Précédent (Jour)
Suivant (Jour) »
Quotidien Hebdomadaire Mensuel Annuel Période au choix
  Maximum: Minimum: Moyenne:
Température: 32 °F /  TemperatureC °C 35.8 °F /  2.1 °C 39.7 °F /  4.3 °C
Point de rosée: 32 °F /  DewpointC °C 25.2 °F /  -3.8 °C 29.3 °F /  -1.5 °C
Humidité: Humidity % 61 % 62 %
Vitesse du vent: WindSpeedKMH mph /  0 km/h - 7.3 mph /  11.7 km/h
Rafales: WindSpeedGustKMH mph /  0 km/h - -
Vent:- - ESE
Pression: 0 in /  PressurehPa hPa 29.5 in /  999.2 hPa -
Précipitations: 0 in /  0.0 mm    
Historical Graphs
 
 
Mesures pour : Fevrier 28, 2018
Heure Temperature Point de rosée Pression Vent Vitesse du vent Rafales Humidité Pluie (par heure) Conditions
32 °F /  TemperatureC °C 32 °F /  DewpointC °C 0 in /  PressurehPa hPa Calm     Humidity % 0 in /  HourlyPrecipMM mm SoftwareType W/m2
00:12 36.3 °F /  2.4 °C 25.7 °F /  -3.5 °C 29.7 in /  1007.0 hPa WNW 1.4 mph /  2.3 km/h 3.2 mph /  5.1 km/h 65 % 0 in /  0.0 mm open2300-1.11 W/m2
01:12 35.8 °F /  2.1 °C 25.2 °F /  -3.8 °C 29.7 in /  1006.3 hPa North 2.1 mph /  3.4 km/h 2.1 mph /  3.4 km/h 65 % 0 in /  0.0 mm open2300-1.11 W/m2
02:12 36 °F /  2.2 °C 25.7 °F /  -3.5 °C 29.7 in /  1006.7 hPa North 3.2 mph /  5.1 km/h 3.2 mph /  5.1 km/h 66 % 0 in /  0.0 mm open2300-1.11 W/m2
03:12 36.9 °F /  2.7 °C 26.2 °F /  -3.2 °C 29.7 in /  1005.6 hPa Calm   2.6 mph /  4.2 km/h 65 % 0 in /  0.0 mm open2300-1.11 W/m2
04:12 37.8 °F /  3.2 °C 27.3 °F /  -2.6 °C 29.7 in /  1005.6 hPa North 2.1 mph /  3.4 km/h 2.1 mph /  3.4 km/h 66 % 0 in /  0.0 mm open2300-1.11 W/m2
05:12 38.7 °F /  3.7 °C 27.5 °F /  -2.5 °C 29.7 in /  1005.0 hPa ENE 11.1 mph /  17.9 km/h 11.1 mph /  17.9 km/h 64 % 0 in /  0.0 mm open2300-1.11 W/m2
06:12 39 °F /  3.9 °C 27.9 °F /  -2.3 °C 29.7 in /  1005.6 hPa Calm   6.4 mph /  10.3 km/h 64 % 0 in /  0.0 mm open2300-1.11 W/m2
07:12 39 °F /  3.9 °C 27.3 °F /  -2.6 °C 29.7 in /  1004.6 hPa ESE 6.4 mph /  10.3 km/h 6.4 mph /  10.3 km/h 63 % 0 in /  0.0 mm open2300-1.11 W/m2
08:12 39.4 °F /  4.1 °C 27.7 °F /  -2.4 °C 29.7 in /  1005.3 hPa ESE 6.1 mph /  9.8 km/h 6.1 mph /  9.8 km/h 63 % 0 in /  0.0 mm open2300-1.11 W/m2
09:12 40.5 °F /  4.7 °C 28.4 °F /  -2.0 °C 29.7 in /  1004.6 hPa NW 6.4 mph /  10.3 km/h 6.4 mph /  10.3 km/h 62 % 0 in /  0.0 mm open2300-1.11 W/m2
10:12 41.7 °F /  5.4 °C 29.1 °F /  -1.6 °C 29.7 in /  1004.6 hPa East 3.5 mph /  5.6 km/h 7.2 mph /  11.6 km/h 61 % 0 in /  0.0 mm open2300-1.11 W/m2
11:12 41.2 °F /  5.1 °C 29.5 °F /  -1.4 °C 29.7 in /  1004.6 hPa ESE 6.4 mph /  10.3 km/h 7.6 mph /  12.2 km/h 63 % 0 in /  0.0 mm open2300-1.11 W/m2
12:12 41.9 °F /  5.5 °C 30.6 °F /  -0.8 °C 29.7 in /  1005.0 hPa SSE 15.8 mph /  25.4 km/h 15.8 mph /  25.4 km/h 64 % 0 in /  0.0 mm open2300-1.11 W/m2
13:12 42.4 °F /  5.8 °C 31.8 °F /  -0.1 °C 29.6 in /  1003.6 hPa East 7.2 mph /  11.6 km/h 10.8 mph /  17.4 km/h 66 % 0 in /  0.0 mm open2300-1.11 W/m2
14:12 42.6 °F /  5.9 °C 32 °F /  0.0 °C 29.6 in /  1002.9 hPa SE 10.1 mph /  16.3 km/h 19.1 mph /  30.7 km/h 66 % 0 in /  0.0 mm open2300-1.11 W/m2
15:12 42.6 °F /  5.9 °C 32 °F /  0.0 °C 29.6 in /  1002.3 hPa ESE 13.7 mph /  22 km/h 18.7 mph /  30.1 km/h 66 % 0 in /  0.0 mm open2300-1.11 W/m2
16:12 42.4 °F /  5.8 °C 31.5 °F /  -0.3 °C 29.6 in /  1002.3 hPa NNE 12.2 mph /  19.6 km/h 12.2 mph /  19.6 km/h 65 % 0 in /  0.0 mm open2300-1.11 W/m2
17:12 41.5 °F /  5.3 °C 30.9 °F /  -0.6 °C 29.6 in /  1001.9 hPa SE 8.7 mph /  14 km/h 9.3 mph /  15 km/h 66 % 0 in /  0.0 mm open2300-1.11 W/m2
18:12 40.8 °F /  4.9 °C 30.4 °F /  -0.9 °C 29.6 in /  1001.2 hPa ESE 23.3 mph /  37.5 km/h 23.3 mph /  37.5 km/h 66 % 0 in /  0.0 mm open2300-1.11 W/m2
19:12 40.8 °F /  4.9 °C 30.4 °F /  -0.9 °C 29.6 in /  1000.9 hPa East 9.0 mph /  14.5 km/h 13.0 mph /  20.9 km/h 66 % 0 in /  0.0 mm open2300-1.11 W/m2
20:12 41 °F /  5.0 °C 30 °F /  -1.1 °C 29.6 in /  1000.6 hPa ESE 4.0 mph /  6.4 km/h 21.2 mph /  34.1 km/h 65 % 0 in /  0.0 mm open2300-1.11 W/m2
21:12 40.8 °F /  4.9 °C 30.7 °F /  -0.7 °C 29.5 in /  999.5 hPa ESE 7.9 mph /  12.7 km/h 13.0 mph /  20.9 km/h 67 % 0 in /  0.0 mm open2300-1.11 W/m2
22:12 41.2 °F /  5.1 °C 30.9 °F /  -0.6 °C 29.5 in /  999.2 hPa SE 4.7 mph /  7.6 km/h 29.4 mph /  47.3 km/h 67 % 0 in /  0.0 mm open2300-1.11 W/m2
23:12 42.1 °F /  5.6 °C 31.5 °F /  -0.3 °C 29.5 in /  999.2 hPa ESE 16.9 mph /  27.2 km/h 23.3 mph /  37.5 km/h 66 % 0 in /  0.0 mm open2300-1.11 W/m2
Observations météo à CASSIS
WU-History script by Weather Underground - 1 mb